Beekman, Louisiana
Current Conditions -  °F | °C
As of 8:15 AM on Monday 22 Dec 2014 (Local Time) from KBQP Reporting Station
Haze Haze  
Wind Chill: 51°   Ceiling: 200
Heat Index: 51°   Visibility: 1.2mi
Dew Point: 50°   Wind: 3mph
Humidity: 98%   Direction: 170°S
Pressure: 29.81"   Gusts: NA
Location:  32.8721°N, 91.912°W
Report Text: KBQP 221415Z AUTO 17003KT 1 1/4SM BR OVC002 10/10 A2981 RMK AO2 T01030100
Loading
Personal Weather Stations






























Interactive Weather Map New forecast layout! Learn more

10-Day Weather Forecast

Advertisements
Track Severe Weather on mobile